createdAt,value
2018-04-08T04:00:39.506Z,0
2018-04-08T04:01:05.005Z,0
2018-04-08T04:01:30.522Z,0
2018-04-08T04:01:56.025Z,0
2018-04-08T04:02:21.526Z,0
2018-04-08T04:02:47.026Z,0
2018-04-08T04:03:12.530Z,0
2018-04-08T04:03:38.029Z,0
2018-04-08T04:04:03.524Z,0
2018-04-08T04:04:29.018Z,0
2018-04-08T04:04:54.510Z,0
2018-04-08T04:05:19.998Z,0
2018-04-08T04:05:45.505Z,0
2018-04-08T04:06:11.015Z,0
2018-04-08T04:06:36.508Z,0
2018-04-08T04:07:02.001Z,0
2018-04-08T04:07:27.495Z,0
2018-04-08T04:07:53.023Z,0
2018-04-08T04:08:18.525Z,0
2018-04-08T04:08:44.024Z,0
2018-04-08T04:09:09.494Z,0
2018-04-08T04:09:34.973Z,0
2018-04-08T04:10:00.463Z,0
2018-04-08T04:10:25.968Z,0
2018-04-08T04:10:51.473Z,0
2018-04-08T04:11:16.970Z,0
2018-04-08T04:11:42.473Z,0
2018-04-08T04:12:07.980Z,0
2018-04-08T04:12:33.474Z,0
2018-04-08T04:12:58.981Z,0
2018-04-08T04:13:24.482Z,0
2018-04-08T04:13:49.978Z,0
2018-04-08T04:14:15.469Z,0
2018-04-08T04:14:40.959Z,0
2018-04-08T04:15:06.457Z,0
2018-04-08T04:15:31.960Z,4
2018-04-08T04:15:57.454Z,4
2018-04-08T04:16:22.948Z,4
2018-04-08T04:16:48.444Z,4
2018-04-08T04:17:13.944Z,4
2018-04-08T04:17:39.443Z,4
2018-04-08T04:18:04.944Z,0
2018-04-08T04:18:30.439Z,0
2018-04-08T04:18:55.938Z,4
2018-04-08T04:19:21.424Z,4
2018-04-08T04:19:46.907Z,4
2018-04-08T04:20:12.398Z,4
2018-04-08T04:20:37.893Z,4
2018-04-08T04:21:03.419Z,4
2018-04-08T04:21:28.929Z,4
2018-04-08T04:21:54.427Z,4
2018-04-08T04:22:19.930Z,4
2018-04-08T04:22:45.425Z,4
2018-04-08T04:23:10.920Z,4
2018-04-08T04:23:36.418Z,8
2018-04-08T04:24:01.924Z,8
2018-04-08T04:24:27.416Z,4
2018-04-08T04:24:52.918Z,8
2018-04-08T04:25:18.420Z,4
2018-04-08T04:25:43.924Z,8
2018-04-08T04:26:09.426Z,12
2018-04-08T04:26:34.929Z,8
2018-04-08T04:27:00.422Z,12
2018-04-08T04:27:25.922Z,12
2018-04-08T04:27:51.426Z,12
2018-04-08T04:28:16.966Z,12
2018-04-08T04:28:42.461Z,12
2018-04-08T04:29:07.961Z,16
2018-04-08T04:29:33.448Z,16
2018-04-08T04:29:58.968Z,16
2018-04-08T04:30:24.483Z,16
2018-04-08T04:30:49.988Z,16
2018-04-08T04:31:15.473Z,24
2018-04-08T04:31:40.964Z,24
2018-04-08T04:32:06.467Z,24
2018-04-08T04:32:31.971Z,28
2018-04-08T04:32:57.533Z,24
2018-04-08T04:33:22.964Z,28
2018-04-08T04:33:48.460Z,32
2018-04-08T04:34:13.934Z,36
2018-04-08T04:34:39.427Z,36
2018-04-08T04:35:04.933Z,40
2018-04-08T04:35:30.440Z,40
2018-04-08T04:35:55.933Z,40
2018-04-08T04:36:21.447Z,48
2018-04-08T04:36:46.956Z,48
2018-04-08T04:37:12.442Z,52
2018-04-08T04:37:37.972Z,52
2018-04-08T04:38:03.461Z,56
2018-04-08T04:38:28.954Z,60
2018-04-08T04:38:54.456Z,60
2018-04-08T04:39:19.950Z,68
2018-04-08T04:39:45.447Z,68
2018-04-08T04:40:10.937Z,76
2018-04-08T04:40:36.428Z,80
2018-04-08T04:41:01.928Z,84
2018-04-08T04:41:27.429Z,88
2018-04-08T04:41:52.936Z,92
2018-04-08T04:42:18.435Z,96
2018-04-08T04:42:43.936Z,100
2018-04-08T04:43:09.435Z,108
2018-04-08T04:43:34.935Z,112
2018-04-08T04:44:00.432Z,120
2018-04-08T04:44:25.936Z,128
2018-04-08T04:44:51.441Z,128
2018-04-08T04:45:16.932Z,136
2018-04-08T04:45:42.440Z,144
2018-04-08T04:46:07.935Z,152
2018-04-08T04:46:33.435Z,160
2018-04-08T04:46:58.938Z,168
2018-04-08T04:47:24.426Z,176
2018-04-08T04:47:49.914Z,184
2018-04-08T04:48:15.416Z,192
2018-04-08T04:48:40.904Z,204
2018-04-08T04:49:06.396Z,212
2018-04-08T04:49:31.892Z,220
2018-04-08T04:49:57.386Z,232
2018-04-08T04:50:22.862Z,240
2018-04-08T04:50:48.372Z,252
2018-04-08T04:51:13.882Z,264
2018-04-08T04:51:39.353Z,272
2018-04-08T04:52:04.857Z,284
2018-04-08T04:52:30.363Z,292
2018-04-08T04:52:55.848Z,300
2018-04-08T04:53:21.360Z,312
2018-04-08T04:53:46.869Z,324
2018-04-08T04:54:12.359Z,336
2018-04-08T04:54:37.856Z,344
2018-04-08T04:55:03.361Z,356
2018-04-08T04:55:28.861Z,368
2018-04-08T04:55:54.324Z,380
2018-04-08T04:56:19.839Z,392
2018-04-08T04:56:45.337Z,404
2018-04-08T04:57:10.828Z,420
2018-04-08T04:57:36.331Z,432
2018-04-08T04:58:01.831Z,448
2018-04-08T04:58:27.320Z,464
2018-04-08T04:58:52.819Z,480
2018-04-08T04:59:18.324Z,492
2018-04-08T04:59:43.834Z,504
2018-04-08T05:00:09.332Z,520
2018-04-08T05:00:34.829Z,536
2018-04-08T05:01:00.333Z,548
2018-04-08T05:01:25.828Z,564
2018-04-08T05:01:51.332Z,580
2018-04-08T05:02:16.834Z,596
2018-04-08T05:02:42.341Z,608
2018-04-08T05:03:07.846Z,628
2018-04-08T05:03:33.353Z,644
2018-04-08T05:03:58.866Z,660
2018-04-08T05:04:24.377Z,676
2018-04-08T05:04:49.866Z,700
2018-04-08T05:05:15.369Z,716
2018-04-08T05:05:40.875Z,732
2018-04-08T05:06:06.378Z,752
2018-04-08T05:06:31.885Z,776
2018-04-08T05:06:57.387Z,796
2018-04-08T05:07:22.886Z,812
2018-04-08T05:07:48.405Z,832
2018-04-08T05:08:13.880Z,848
2018-04-08T05:08:39.377Z,864
2018-04-08T05:09:04.874Z,880
2018-04-08T05:09:30.370Z,900
2018-04-08T05:09:55.860Z,916
2018-04-08T05:10:21.361Z,936
2018-04-08T05:10:46.867Z,960
2018-04-08T05:11:12.360Z,984
2018-04-08T05:11:37.862Z,1008
2018-04-08T05:12:03.368Z,1032
2018-04-08T05:12:28.865Z,1060
2018-04-08T05:12:54.372Z,1088
2018-04-08T05:13:19.866Z,1116
2018-04-08T05:13:45.363Z,1152
2018-04-08T05:14:10.863Z,1188
2018-04-08T05:14:36.366Z,1220
2018-04-08T05:15:01.861Z,1256
2018-04-08T05:15:27.362Z,1288
2018-04-08T05:15:52.866Z,1328
2018-04-08T05:16:18.370Z,1364
2018-04-08T05:16:43.855Z,1404
2018-04-08T05:17:09.362Z,1444
2018-04-08T05:17:34.872Z,1488
2018-04-08T05:18:00.362Z,1536
2018-04-08T05:18:25.867Z,1588
2018-04-08T05:18:51.352Z,1640
2018-04-08T05:19:16.850Z,1688
2018-04-08T05:19:42.364Z,1732
2018-04-08T05:20:07.852Z,1780
2018-04-08T05:20:33.356Z,1828
2018-04-08T05:20:58.855Z,1872
2018-04-08T05:21:24.335Z,1912
2018-04-08T05:21:49.843Z,1948
2018-04-08T05:22:15.349Z,1988
2018-04-08T05:22:40.852Z,2028
2018-04-08T05:23:06.371Z,2068
2018-04-08T05:23:31.798Z,2100
2018-04-08T05:23:57.300Z,2132
2018-04-08T05:24:22.789Z,2156
2018-04-08T05:24:48.285Z,2188
2018-04-08T05:25:13.776Z,2216
2018-04-08T05:25:39.289Z,2244
2018-04-08T05:26:04.793Z,2268
2018-04-08T05:26:30.285Z,2300
2018-04-08T05:26:55.784Z,2328
2018-04-08T05:27:21.279Z,2352
2018-04-08T05:27:46.780Z,2380
2018-04-08T05:28:12.281Z,2412
2018-04-08T05:28:37.782Z,2436
2018-04-08T05:29:03.280Z,2460
2018-04-08T05:29:28.784Z,2488
2018-04-08T05:29:54.289Z,2512
2018-04-08T05:30:19.780Z,2532
2018-04-08T05:30:45.276Z,2552
2018-04-08T05:31:10.773Z,2572
2018-04-08T05:31:36.264Z,2588
2018-04-08T05:32:01.755Z,2612
2018-04-08T05:32:27.239Z,2624
2018-04-08T05:32:52.702Z,2644
2018-04-08T05:33:18.191Z,2660
2018-04-08T05:33:43.662Z,2672
2018-04-08T05:34:09.152Z,2688
2018-04-08T05:34:34.649Z,2700
2018-04-08T05:35:00.148Z,2720
2018-04-08T05:35:25.607Z,2736
2018-04-08T05:35:51.068Z,2760
2018-04-08T05:36:16.531Z,2788
2018-04-08T05:36:42.003Z,2816
2018-04-08T05:37:07.475Z,2840
2018-04-08T05:37:32.932Z,2856
2018-04-08T05:37:58.375Z,2872
2018-04-08T05:39:01.987Z,2896
2018-04-08T05:39:27.493Z,2912
2018-04-08T05:39:52.982Z,2936
2018-04-08T05:40:18.426Z,2952
2018-04-08T05:40:43.907Z,2976
2018-04-08T05:41:09.376Z,3004
2018-04-08T05:41:34.838Z,3036
2018-04-08T05:42:00.288Z,3060
2018-04-08T05:42:25.734Z,3088
2018-04-08T05:42:51.223Z,3120
2018-04-08T05:43:16.718Z,3196
2018-04-08T05:43:42.182Z,3236
2018-04-08T05:44:07.656Z,3288
2018-04-08T05:44:33.109Z,3324
2018-04-08T05:44:58.611Z,3356
2018-04-08T05:45:24.092Z,3392
2018-04-08T05:45:49.564Z,3424
2018-04-08T05:46:15.065Z,3456
2018-04-08T05:46:40.572Z,3476
2018-04-08T05:47:06.062Z,3488
2018-04-08T05:47:31.561Z,3492
2018-04-08T05:47:57.059Z,3496
2018-04-08T05:48:22.557Z,3500
2018-04-08T05:48:48.049Z,3508
2018-04-08T05:49:13.546Z,3520
2018-04-08T05:49:39.030Z,3528
2018-04-08T05:50:04.524Z,3532
2018-04-08T05:50:30.004Z,3524
2018-04-08T05:50:55.479Z,3556
2018-04-08T05:51:20.974Z,3600
2018-04-08T05:51:46.474Z,3632
2018-04-08T05:52:11.954Z,3672
2018-04-08T05:52:37.450Z,3720
2018-04-08T05:53:02.930Z,3772
2018-04-08T05:53:28.463Z,3828
2018-04-08T05:53:53.953Z,3884
2018-04-08T05:54:19.446Z,3924
2018-04-08T05:54:44.960Z,4000
2018-04-08T05:55:10.464Z,4072
2018-04-08T05:55:35.951Z,4136
2018-04-08T05:56:01.453Z,4184
2018-04-08T05:56:26.949Z,4216
2018-04-08T05:56:52.445Z,4220
2018-04-08T05:57:17.941Z,4244
2018-04-08T05:57:43.432Z,4268
2018-04-08T05:58:08.923Z,4268
2018-04-08T05:58:34.395Z,4260
2018-04-08T05:58:59.844Z,4244
2018-04-08T05:59:25.299Z,4224
2018-04-08T05:59:50.758Z,4200
2018-04-08T06:00:16.210Z,4172
2018-04-08T06:00:41.696Z,4160
2018-04-08T06:01:50.386Z,4116
2018-04-08T06:02:15.891Z,4004
2018-04-08T06:02:41.372Z,3856
2018-04-08T06:03:06.848Z,3712
2018-04-08T06:03:32.336Z,3680
2018-04-08T06:03:57.792Z,3720
2018-04-08T06:04:23.255Z,3600
2018-04-08T06:04:48.688Z,3576
2018-04-08T06:05:14.183Z,3560
2018-04-08T06:05:39.680Z,3604
2018-04-08T06:06:05.164Z,3544
2018-04-08T06:06:30.662Z,3528
2018-04-08T06:06:56.149Z,3512
2018-04-08T06:08:15.087Z,3444
2018-04-08T06:08:40.580Z,3424
2018-04-08T06:09:06.082Z,3404
2018-04-08T06:09:31.576Z,3384
2018-04-08T06:09:57.081Z,3360
2018-04-08T06:10:22.583Z,3348
2018-04-08T06:10:48.083Z,3332
2018-04-08T06:11:13.588Z,3316
2018-04-08T06:11:39.077Z,3296
2018-04-08T06:12:04.558Z,3276
2018-04-08T06:12:30.041Z,3256
2018-04-08T06:12:55.509Z,3236
2018-04-08T06:13:20.964Z,3208
2018-04-08T06:13:46.422Z,3188
2018-04-08T06:14:11.876Z,3168
2018-04-08T06:14:37.387Z,3152
2018-04-08T06:15:02.933Z,3136
2018-04-08T06:15:28.428Z,3120
2018-04-08T06:15:53.926Z,3100
2018-04-08T06:16:19.436Z,3080
2018-04-08T06:16:44.942Z,3064
2018-04-08T06:17:10.454Z,3044
2018-04-08T06:17:35.987Z,3024
2018-04-08T06:18:01.409Z,3012
2018-04-08T06:18:26.904Z,2988
2018-04-08T06:18:52.409Z,2976
2018-04-08T06:19:17.911Z,2960
2018-04-08T06:19:43.416Z,2952
2018-04-08T06:20:08.910Z,2944
2018-04-08T06:20:34.406Z,2948
2018-04-08T06:20:59.900Z,2952
2018-04-08T06:21:25.390Z,2964
2018-04-08T06:21:50.900Z,2980
2018-04-08T06:22:16.401Z,2992
2018-04-08T06:22:41.900Z,3008
2018-04-08T06:23:07.401Z,3016
2018-04-08T06:23:32.897Z,3020
2018-04-08T06:23:58.396Z,3028
2018-04-08T06:24:23.907Z,3036
2018-04-08T06:24:49.417Z,3048
2018-04-08T06:25:14.920Z,3060
2018-04-08T06:25:40.420Z,3060
2018-04-08T06:26:05.924Z,3072
2018-04-08T06:26:31.448Z,3080
2018-04-08T06:26:56.959Z,3088
2018-04-08T06:27:22.457Z,3100
2018-04-08T06:27:47.958Z,3108
2018-04-08T06:28:13.459Z,3116
2018-04-08T06:28:38.952Z,3124
2018-04-08T06:29:04.448Z,3128
2018-04-08T06:29:29.952Z,3140
2018-04-08T06:29:55.438Z,3140
2018-04-08T06:30:20.934Z,3136
2018-04-08T06:30:46.433Z,3140
2018-04-08T06:31:11.929Z,3140
2018-04-08T06:31:37.435Z,3140
2018-04-08T06:32:02.934Z,3140
2018-04-08T06:32:28.436Z,3140
2018-04-08T06:32:53.933Z,3144
2018-04-08T06:33:19.440Z,3148
2018-04-08T06:33:44.941Z,3144
2018-04-08T06:34:10.446Z,3144
2018-04-08T06:34:35.948Z,3144
2018-04-08T06:35:01.459Z,3144
2018-04-08T06:35:26.966Z,3144
2018-04-08T06:35:52.457Z,3148
2018-04-08T06:36:17.959Z,3152
2018-04-08T06:36:43.458Z,3160
2018-04-08T06:37:08.940Z,3168
2018-04-08T06:37:34.426Z,3176
2018-04-08T06:37:59.911Z,3184
2018-04-08T06:38:25.415Z,3204
2018-04-08T06:38:50.919Z,3228
2018-04-08T06:39:16.423Z,3252
2018-04-08T06:39:41.935Z,3280
2018-04-08T06:40:07.441Z,3312
2018-04-08T06:40:32.948Z,3344
2018-04-08T06:40:58.459Z,3380
2018-04-08T06:41:23.983Z,3412
2018-04-08T06:41:49.467Z,3452
2018-04-08T06:42:14.976Z,3488
2018-04-08T06:42:40.464Z,3524
2018-04-08T06:43:05.970Z,3564
2018-04-08T06:43:31.516Z,3604
2018-04-08T06:43:56.974Z,3648
2018-04-08T06:44:22.469Z,3700
2018-04-08T06:44:47.972Z,3740
2018-04-08T06:45:13.469Z,3788
2018-04-08T06:45:38.989Z,3832
2018-04-08T06:46:04.485Z,3880
2018-04-08T06:46:29.986Z,3936
2018-04-08T06:46:55.487Z,3996
2018-04-08T06:47:20.993Z,4052
2018-04-08T06:47:46.502Z,4104
2018-04-08T06:48:12.017Z,4152
2018-04-08T06:48:37.521Z,4204
2018-04-08T06:49:03.025Z,4256
2018-04-08T06:49:28.539Z,4312
2018-04-08T06:49:54.033Z,4364
2018-04-08T06:50:19.529Z,4412
2018-04-08T06:50:45.045Z,4456
2018-04-08T06:51:10.568Z,4488
2018-04-08T06:51:36.064Z,4516
2018-04-08T06:52:01.561Z,4544
2018-04-08T06:52:27.057Z,4572
2018-04-08T06:52:52.561Z,4596
2018-04-08T06:53:18.067Z,4612
2018-04-08T06:53:43.578Z,4640
2018-04-08T06:54:09.068Z,4660
2018-04-08T06:54:34.558Z,4676
2018-04-08T06:55:00.055Z,4688
2018-04-08T06:55:25.543Z,4708
2018-04-08T06:55:51.062Z,4728
2018-04-08T06:56:16.565Z,4744
2018-04-08T06:56:42.049Z,4760
2018-04-08T06:57:07.530Z,4772
2018-04-08T06:57:33.233Z,4792
2018-04-08T06:57:58.671Z,4808
2018-04-08T06:58:24.188Z,4820
2018-04-08T06:58:49.667Z,4840
2018-04-08T06:59:15.201Z,4864
2018-04-08T06:59:40.661Z,4888
2018-04-08T07:00:06.125Z,4908
2018-04-08T07:00:31.648Z,4928
2018-04-08T07:00:57.135Z,4952
2018-04-08T07:01:22.644Z,4968
2018-04-08T07:01:48.105Z,4992
2018-04-08T07:02:13.564Z,5020
2018-04-08T07:02:39.132Z,5044
2018-04-08T07:03:04.667Z,5068
2018-04-08T07:03:30.168Z,5092
2018-04-08T07:03:55.654Z,5124
2018-04-08T07:04:21.153Z,5156
2018-04-08T07:04:46.661Z,5188
2018-04-08T07:05:12.202Z,5224
2018-04-08T07:05:37.663Z,5264
2018-04-08T07:06:03.158Z,5272
2018-04-08T07:06:28.658Z,5308
2018-04-08T07:06:54.132Z,5344
2018-04-08T07:07:19.650Z,5380
2018-04-08T07:07:45.130Z,5424
2018-04-08T07:08:10.638Z,5480
2018-04-08T07:08:36.119Z,5548
2018-04-08T07:09:01.662Z,5608
2018-04-08T07:09:27.171Z,5672
2018-04-08T07:09:52.669Z,5736
2018-04-08T07:10:18.152Z,5788
2018-04-08T07:10:43.649Z,5844
2018-04-08T07:11:09.145Z,5900
2018-04-08T07:11:34.645Z,5956
2018-04-08T07:12:00.156Z,6004
2018-04-08T07:12:25.636Z,6040
2018-04-08T07:12:51.148Z,6068
2018-04-08T07:13:16.635Z,6096
2018-04-08T07:13:42.133Z,6128
2018-04-08T07:14:07.634Z,6140
2018-04-08T07:14:33.133Z,6152
2018-04-08T07:14:58.628Z,6160
2018-04-08T07:15:24.135Z,6168
2018-04-08T07:15:49.632Z,6180
2018-04-08T07:16:15.123Z,6196
2018-04-08T07:16:40.616Z,6212
2018-04-08T07:17:06.122Z,6240
2018-04-08T07:17:31.614Z,6272
2018-04-08T07:17:57.114Z,6312
2018-04-08T07:18:22.661Z,6392
2018-04-08T07:18:48.113Z,6456
2018-04-08T07:19:13.617Z,6520
2018-04-08T07:19:39.114Z,6560
2018-04-08T07:20:04.608Z,6604
2018-04-08T07:20:30.104Z,6656
2018-04-08T07:20:55.603Z,6708
2018-04-08T07:21:21.088Z,6764
2018-04-08T07:21:46.578Z,6836
2018-04-08T07:22:12.075Z,6912
2018-04-08T07:22:37.562Z,6984
2018-04-08T07:23:03.071Z,7060
2018-04-08T07:23:28.562Z,7120
2018-04-08T07:23:54.088Z,7132
2018-04-08T07:24:19.607Z,7144
2018-04-08T07:24:45.144Z,7144
2018-04-08T07:25:10.625Z,7140
2018-04-08T07:25:36.099Z,7132
2018-04-08T07:26:01.572Z,7132
2018-04-08T07:26:27.052Z,7124
2018-04-08T07:26:52.548Z,7104
2018-04-08T07:27:18.024Z,7088
2018-04-08T07:27:43.524Z,7072
2018-04-08T07:28:09.039Z,7048
2018-04-08T07:28:34.547Z,7016
2018-04-08T07:29:00.004Z,6980
2018-04-08T07:29:25.515Z,6960
2018-04-08T07:29:51.000Z,6948
2018-04-08T07:30:16.488Z,6940
2018-04-08T07:30:41.992Z,6928
2018-04-08T07:31:07.457Z,6920
2018-04-08T07:31:32.964Z,6896
2018-04-08T07:31:58.470Z,6880
2018-04-08T07:32:23.960Z,6880
2018-04-08T07:32:49.459Z,6848
2018-04-08T07:33:14.981Z,6788
2018-04-08T07:33:40.470Z,6744
2018-04-08T07:34:05.955Z,6748
2018-04-08T07:34:31.439Z,6792
2018-04-08T07:34:56.921Z,6832
2018-04-08T07:35:22.464Z,6884
2018-04-08T07:35:47.957Z,6964
2018-04-08T07:36:13.454Z,7052
2018-04-08T07:36:38.950Z,7136
2018-04-08T07:37:04.463Z,7236
2018-04-08T07:37:29.953Z,7348
2018-04-08T07:37:55.446Z,7456
2018-04-08T07:38:20.955Z,7504
2018-04-08T07:38:46.453Z,7564
2018-04-08T07:39:11.965Z,7600
2018-04-08T07:39:37.466Z,7616
2018-04-08T07:40:02.968Z,7636
2018-04-08T07:40:28.472Z,7632
2018-04-08T07:40:53.978Z,7616
2018-04-08T07:41:19.469Z,7592
2018-04-08T07:41:44.965Z,7556
2018-04-08T07:42:10.452Z,7512
2018-04-08T07:42:35.953Z,7448
2018-04-08T07:43:01.451Z,7400
2018-04-08T07:43:26.964Z,7368
2018-04-08T07:43:52.454Z,7368
2018-04-08T07:44:17.956Z,7724
2018-04-08T07:44:43.449Z,7880
2018-04-08T07:45:08.951Z,7836
2018-04-08T07:45:34.450Z,7704
2018-04-08T07:45:59.955Z,7604
2018-04-08T07:46:25.444Z,7556
2018-04-08T07:46:50.959Z,7560
2018-04-08T07:47:16.463Z,7552
2018-04-08T07:47:41.959Z,7672
2018-04-08T07:48:07.459Z,7764
2018-04-08T07:48:32.955Z,7676
2018-04-08T07:48:58.451Z,7580
2018-04-08T07:49:23.949Z,7504
2018-04-08T07:49:49.447Z,7412
2018-04-08T07:50:14.941Z,7336
2018-04-08T07:50:40.457Z,7268
2018-04-08T07:51:05.957Z,7180
2018-04-08T07:51:31.457Z,7140
2018-04-08T07:51:56.959Z,6976
2018-04-08T07:52:22.457Z,6960
2018-04-08T07:52:47.952Z,6852
2018-04-08T07:53:13.445Z,6768
2018-04-08T07:53:38.941Z,6592
2018-04-08T07:54:04.434Z,6652
2018-04-08T07:54:29.935Z,6624
2018-04-08T07:54:55.434Z,6512
2018-04-08T07:55:20.929Z,6308
2018-04-08T07:55:46.424Z,6216
2018-04-08T07:56:11.925Z,5980
2018-04-08T07:56:37.432Z,6124
2018-04-08T07:57:02.928Z,6224
2018-04-08T07:57:28.428Z,6200
2018-04-08T07:57:53.911Z,6168
2018-04-08T07:58:19.406Z,5504
2018-04-08T07:58:44.901Z,5412
2018-04-08T07:59:10.426Z,5352
2018-04-08T07:59:35.912Z,5528
2018-04-08T08:00:01.398Z,5980
2018-04-08T08:00:26.902Z,5764
2018-04-08T08:00:52.402Z,5448
2018-04-08T08:01:17.925Z,5352
2018-04-08T08:01:43.424Z,5408
2018-04-08T08:02:08.940Z,5380
2018-04-08T08:02:34.434Z,5468
2018-04-08T08:02:59.944Z,5456
2018-04-08T08:03:25.442Z,5344
2018-04-08T08:03:50.941Z,5464
2018-04-08T08:04:16.438Z,5588
2018-04-08T08:04:41.941Z,5556
2018-04-08T08:05:07.445Z,5212
2018-04-08T08:05:32.942Z,5140
2018-04-08T08:05:58.448Z,5092
2018-04-08T08:06:23.957Z,4988
2018-04-08T08:06:49.459Z,4960
2018-04-08T08:07:14.933Z,4940
2018-04-08T08:07:40.418Z,4916
2018-04-08T08:08:05.900Z,4912
2018-04-08T08:08:31.408Z,4908
2018-04-08T08:08:56.926Z,4912
2018-04-08T08:09:22.440Z,5052
2018-04-08T08:09:47.946Z,5360
2018-04-08T08:10:13.435Z,5060
2018-04-08T08:10:38.942Z,4924
2018-04-08T08:11:04.443Z,4852
2018-04-08T08:11:29.949Z,4844
2018-04-08T08:11:55.448Z,4900
2018-04-08T08:12:20.968Z,5004
2018-04-08T08:12:46.472Z,4888
2018-04-08T08:13:11.973Z,4872
2018-04-08T08:13:37.484Z,4948
2018-04-08T08:14:02.987Z,4936
2018-04-08T08:14:28.477Z,5220
2018-04-08T08:14:53.979Z,5468
2018-04-08T08:15:19.501Z,5588
2018-04-08T08:15:45.044Z,5260
2018-04-08T08:16:10.506Z,5080
2018-04-08T08:16:36.013Z,5076
2018-04-08T08:17:01.510Z,5148
2018-04-08T08:17:27.000Z,5236
2018-04-08T08:17:52.508Z,5228
2018-04-08T08:18:18.034Z,5420
2018-04-08T08:18:43.505Z,5584
2018-04-08T08:19:08.994Z,5652
2018-04-08T08:19:34.500Z,5656
2018-04-08T08:20:00.007Z,5652
2018-04-08T08:20:25.514Z,5648
2018-04-08T08:20:51.028Z,5620
2018-04-08T08:21:16.530Z,5464
2018-04-08T08:21:42.038Z,5444
2018-04-08T08:22:07.537Z,5552
2018-04-08T08:22:33.048Z,5376
2018-04-08T08:22:58.558Z,5244
2018-04-08T08:23:24.064Z,5388
2018-04-08T08:23:49.556Z,5396
2018-04-08T08:24:15.063Z,5416
2018-04-08T08:24:40.568Z,5524
2018-04-08T08:25:06.079Z,5568
2018-04-08T08:25:31.574Z,5616
2018-04-08T08:25:57.070Z,5524
2018-04-08T08:26:22.580Z,5608
2018-04-08T08:26:48.097Z,5572
2018-04-08T08:27:13.596Z,5452
2018-04-08T08:27:39.098Z,5476
2018-04-08T08:28:04.603Z,5760
2018-04-08T08:28:30.114Z,5860
2018-04-08T08:28:55.610Z,5896
2018-04-08T08:29:21.109Z,5968
2018-04-08T08:29:46.609Z,5944
2018-04-08T08:30:12.111Z,5852
2018-04-08T08:30:37.626Z,5848
2018-04-08T08:31:03.121Z,5940
2018-04-08T08:31:28.627Z,5884
2018-04-08T08:31:54.154Z,5804
2018-04-08T08:32:19.640Z,5804
2018-04-08T08:32:45.135Z,5864
2018-04-08T08:33:10.640Z,5700
2018-04-08T08:33:36.139Z,5612
2018-04-08T08:34:01.639Z,5564
2018-04-08T08:34:27.134Z,5536
2018-04-08T08:34:52.634Z,5528
2018-04-08T08:35:18.134Z,5596
2018-04-08T08:35:43.633Z,5672
2018-04-08T08:36:09.148Z,5680
2018-04-08T08:36:34.650Z,5904
2018-04-08T08:37:00.163Z,5824
2018-04-08T08:37:25.649Z,5916
2018-04-08T08:37:51.147Z,6100
2018-04-08T08:38:16.666Z,6004
2018-04-08T08:38:42.142Z,6076
2018-04-08T08:39:07.639Z,5972
2018-04-08T08:39:33.146Z,5868
2018-04-08T08:39:58.645Z,5820
2018-04-08T08:40:24.149Z,5960
2018-04-08T08:40:49.649Z,5828
2018-04-08T08:41:15.156Z,5680
2018-04-08T08:41:40.680Z,5812
2018-04-08T08:42:06.163Z,5924
2018-04-08T08:42:31.671Z,5960
2018-04-08T08:42:57.175Z,5912
2018-04-08T08:43:22.713Z,5644
2018-04-08T08:43:48.184Z,5876
2018-04-08T08:44:13.694Z,5808
2018-04-08T08:44:39.193Z,5884
2018-04-08T08:45:04.693Z,5684
2018-04-08T08:45:30.192Z,5952
2018-04-08T08:45:55.687Z,6048
2018-04-08T08:46:21.191Z,6064
2018-04-08T08:46:46.702Z,6104
2018-04-08T08:47:12.201Z,6128
2018-04-08T08:47:37.698Z,6136
2018-04-08T08:48:03.203Z,6148
2018-04-08T08:48:28.705Z,6184
2018-04-08T08:48:54.220Z,6236
2018-04-08T08:49:19.721Z,6288
2018-04-08T08:49:45.225Z,6340
2018-04-08T08:50:10.764Z,6368
2018-04-08T08:50:36.231Z,6392
2018-04-08T08:51:01.741Z,6416
2018-04-08T08:51:27.245Z,6452
2018-04-08T08:51:52.746Z,6492
2018-04-08T08:52:18.255Z,6524
2018-04-08T08:52:43.756Z,6532
2018-04-08T08:53:09.263Z,6512
2018-04-08T08:53:34.762Z,6464
2018-04-08T08:54:00.262Z,6404
2018-04-08T08:54:25.760Z,6352
2018-04-08T08:54:51.304Z,6288
2018-04-08T08:55:16.766Z,6220
2018-04-08T08:55:42.268Z,6180
2018-04-08T08:56:07.777Z,6152
2018-04-08T08:56:33.294Z,6160
2018-04-08T08:56:58.789Z,6180
2018-04-08T08:57:24.291Z,6180
2018-04-08T08:57:49.778Z,6184
2018-04-08T08:58:15.286Z,6176
2018-04-08T08:58:40.787Z,6160
2018-04-08T08:59:06.297Z,6144
2018-04-08T08:59:31.805Z,6116
2018-04-08T08:59:57.316Z,6092
2018-04-08T09:00:22.874Z,6068
2018-04-08T09:00:48.327Z,6068
2018-04-08T09:01:13.818Z,6080
2018-04-08T09:01:39.325Z,6100
2018-04-08T09:02:04.825Z,6152
2018-04-08T09:02:30.331Z,6196
2018-04-08T09:02:55.837Z,6248
2018-04-08T09:03:21.339Z,6288
2018-04-08T09:03:46.845Z,6312
2018-04-08T09:04:12.354Z,6344
2018-04-08T09:04:37.862Z,6396
2018-04-08T09:05:03.381Z,6420
2018-04-08T09:05:28.890Z,6416
2018-04-08T09:05:54.388Z,6504
2018-04-08T09:06:19.884Z,6628
2018-04-08T09:06:45.395Z,6668
2018-04-08T09:07:10.894Z,6760
2018-04-08T09:07:36.405Z,6832
2018-04-08T09:08:01.901Z,6836
2018-04-08T09:08:27.402Z,6884
2018-04-08T09:08:52.915Z,6904
2018-04-08T09:09:18.423Z,6896
2018-04-08T09:09:43.940Z,6956
2018-04-08T09:10:09.454Z,7052
2018-04-08T09:10:34.961Z,7172
2018-04-08T09:11:00.464Z,7228
2018-04-08T09:11:25.972Z,7360
2018-04-08T09:11:51.491Z,7376
2018-04-08T09:12:16.989Z,7396
2018-04-08T09:12:42.495Z,7364
2018-04-08T09:13:07.991Z,7436
2018-04-08T09:13:33.498Z,7340
2018-04-08T09:13:59.009Z,7356
2018-04-08T09:14:24.506Z,7356
2018-04-08T09:14:50.017Z,7404
2018-04-08T09:15:15.526Z,7608
2018-04-08T09:15:41.038Z,7712
2018-04-08T09:16:06.548Z,7720
2018-04-08T09:16:32.054Z,7864
2018-04-08T09:16:57.557Z,7852
2018-04-08T09:17:23.056Z,7724
2018-04-08T09:17:48.556Z,7812
2018-04-08T09:18:14.061Z,7776
2018-04-08T09:18:39.591Z,7516
2018-04-08T09:19:05.104Z,7488
2018-04-08T09:19:30.626Z,7608
2018-04-08T09:19:56.117Z,7356
2018-04-08T09:20:21.638Z,7264
2018-04-08T09:20:47.146Z,7372
2018-04-08T09:21:12.643Z,7432
2018-04-08T09:21:38.144Z,7400
2018-04-08T09:22:03.642Z,7400
2018-04-08T09:22:29.134Z,7392
2018-04-08T09:22:54.639Z,7224
2018-04-08T09:23:20.145Z,7136
2018-04-08T09:23:45.658Z,7088
2018-04-08T09:24:11.172Z,7048
2018-04-08T09:24:36.662Z,7012
2018-04-08T09:25:02.184Z,6916
2018-04-08T09:25:27.670Z,6864
2018-04-08T09:25:53.164Z,6728
2018-04-08T09:26:18.674Z,6600
2018-04-08T09:26:44.209Z,6460
2018-04-08T09:27:09.684Z,6388
2018-04-08T09:27:35.181Z,6272
2018-04-08T09:28:00.698Z,6196
2018-04-08T09:28:26.196Z,6148
2018-04-08T09:28:51.704Z,6072
2018-04-08T09:29:17.203Z,6008
2018-04-08T09:29:42.754Z,5928
2018-04-08T09:30:08.204Z,5856
2018-04-08T09:30:33.704Z,5788
2018-04-08T09:30:59.204Z,5744
2018-04-08T09:31:24.699Z,5704
2018-04-08T09:31:50.198Z,5684
2018-04-08T09:32:15.696Z,5660
2018-04-08T09:32:41.200Z,5656
2018-04-08T09:33:06.713Z,5668
2018-04-08T09:33:32.210Z,5680
2018-04-08T09:33:57.722Z,5708
2018-04-08T09:34:23.235Z,5772
2018-04-08T09:34:48.744Z,5832
2018-04-08T09:35:14.260Z,5904
2018-04-08T09:35:39.763Z,5964
2018-04-08T09:36:05.257Z,6008
2018-04-08T09:36:30.813Z,5996
2018-04-08T09:36:56.256Z,6024
2018-04-08T09:37:21.762Z,6036
2018-04-08T09:37:47.263Z,6020
2018-04-08T09:38:12.779Z,5996
2018-04-08T09:38:38.285Z,5892
2018-04-08T09:39:03.792Z,5808
2018-04-08T09:39:29.295Z,5852
2018-04-08T09:39:54.818Z,5856
2018-04-08T09:40:20.318Z,5908
2018-04-08T09:40:45.819Z,6012
2018-04-08T09:41:11.324Z,6212
2018-04-08T09:41:36.842Z,6312
2018-04-08T09:42:02.335Z,6468
2018-04-08T09:42:27.849Z,6580
2018-04-08T09:42:53.361Z,6704
2018-04-08T09:43:18.876Z,6832
2018-04-08T09:43:44.373Z,7004
2018-04-08T09:44:09.865Z,7208
2018-04-08T09:44:35.364Z,7400
2018-04-08T09:45:00.877Z,7484
2018-04-08T09:45:26.380Z,7700
2018-04-08T09:45:51.882Z,7724
2018-04-08T09:46:17.370Z,7784
2018-04-08T09:46:42.882Z,7864